Time;durP1;ratioP1;P1;durP2;ratioP2;P2;SDS_P1;SDS_P2;PMS_P1;PMS_P2;Temp;Humidity;BMP_temperature;BMP_pressure;BME280_temperature;BME280_humidity;BME280_pressure;Samples;Min_cycle;Max_cycle;Signal;HPM_P1;HPM_P2
2023/06/29 00:03:28;;;;;;;13.65;5.80;;;;;;;15.90;100.00;100641.17;5132872;55;1241561;-69
2023/06/29 00:08:36;;;;;;;17.70;5.55;;;;;;;15.88;100.00;100639.67;5129723;55;1241237;-78
2023/06/29 00:13:42;;;;;;;16.73;6.20;;;;;;;15.95;100.00;100644.23;5036056;56;1242302;-72
2023/06/29 00:18:49;;;;;;;16.10;6.23;;;;;;;16.00;100.00;100641.97;5088680;55;1258880;-77
2023/06/29 00:23:55;;;;;;;12.70;5.60;;;;;;;16.00;100.00;100645.97;5107304;56;1252172;-76
2023/06/29 00:29:00;;;;;;;11.90;5.97;;;;;;;16.02;100.00;100639.99;5109181;56;1247715;-72
2023/06/29 00:34:06;;;;;;;16.33;5.53;;;;;;;16.03;100.00;100635.00;5131449;56;1142806;-75
2023/06/29 00:39:11;;;;;;;7.43;4.70;;;;;;;15.97;100.00;100646.27;5022282;56;1249392;-73
2023/06/29 00:44:18;;;;;;;16.60;5.90;;;;;;;15.80;100.00;100645.24;4988849;57;1252085;-73
2023/06/29 00:49:24;;;;;;;14.30;6.00;;;;;;;15.83;100.00;100645.45;4960390;57;1142886;-72
2023/06/29 00:54:30;;;;;;;13.95;6.83;;;;;;;15.76;100.00;100651.86;4994608;57;1142925;-73
2023/06/29 00:59:39;;;;;;;10.60;5.13;;;;;;;15.54;100.00;100648.23;4975577;57;1143062;-74
2023/06/29 01:04:50;;;;;;;12.67;6.20;;;;;;;15.37;100.00;100653.85;4973244;57;1241740;-73
2023/06/29 01:09:54;;;;;;;14.93;5.93;;;;;;;15.25;100.00;100651.52;4998970;56;1143028;-74
2023/06/29 01:15:01;;;;;;;10.37;5.90;;;;;;;15.20;100.00;100649.28;5070936;55;1142955;-74
2023/06/29 01:20:11;;;;;;;9.47;5.43;;;;;;;15.18;100.00;100632.60;5111284;55;1142701;-72
2023/06/29 01:25:17;;;;;;;7.97;5.23;;;;;;;15.22;100.00;100639.81;5111032;55;1140909;-76
2023/06/29 01:30:23;;;;;;;16.36;6.46;;;;;;;15.25;100.00;100627.05;5114420;56;1213005;-74
2023/06/29 01:35:29;;;;;;;11.60;5.93;;;;;;;15.25;100.00;100628.88;5079070;56;1155171;-79
2023/06/29 01:40:38;;;;;;;14.95;6.60;;;;;;;15.11;100.00;100636.36;5046475;56;1143102;-72
2023/06/29 01:45:44;;;;;;;15.40;6.03;;;;;;;14.97;100.00;100635.45;5066415;56;1142928;-72
2023/06/29 01:50:50;;;;;;;9.80;5.73;;;;;;;14.88;100.00;100635.50;5046942;56;1143037;-77
2023/06/29 01:55:56;;;;;;;12.63;5.80;;;;;;;14.82;100.00;100636.09;5068212;56;1141036;-80
2023/06/29 02:01:03;;;;;;;14.90;6.33;;;;;;;14.77;100.00;100634.69;5124530;56;1142789;-72
2023/06/29 02:06:09;;;;;;;7.37;5.67;;;;;;;14.76;100.00;100638.33;5106063;56;1143295;-71
2023/06/29 02:11:16;;;;;;;15.43;6.90;;;;;;;14.79;100.00;100637.20;5160699;55;1141120;-78
2023/06/29 02:16:21;;;;;;;12.20;6.23;;;;;;;14.80;100.00;100635.39;5206923;55;1143333;-73
2023/06/29 02:21:28;;;;;;;16.77;6.90;;;;;;;14.76;100.00;100640.99;5130737;55;1142779;-76
2023/06/29 02:26:33;;;;;;;18.52;7.17;;;;;;;14.74;100.00;100646.10;5129628;56;1143095;-78
2023/06/29 02:31:41;;;;;;;9.03;5.80;;;;;;;14.75;100.00;100645.12;5132167;56;1142972;-78
2023/06/29 02:36:47;;;;;;;7.20;6.47;;;;;;;14.80;100.00;100650.87;5152802;56;1140737;-73
2023/06/29 02:41:53;;;;;;;7.17;6.10;;;;;;;14.97;100.00;100648.77;5131990;56;1140924;-70
2023/06/29 02:46:59;;;;;;;10.10;5.73;;;;;;;15.08;100.00;100641.13;5131510;56;1140848;-76
2023/06/29 02:52:07;;;;;;;14.83;6.17;;;;;;;14.98;100.00;100650.95;5152037;55;1142967;-75
2023/06/29 02:57:13;;;;;;;14.10;6.50;;;;;;;14.77;100.00;100653.33;5132058;55;1142786;-70
2023/06/29 03:02:19;;;;;;;13.47;7.23;;;;;;;14.65;100.00;100655.80;5112181;56;1260707;-71
2023/06/29 03:07:24;;;;;;;12.78;6.22;;;;;;;14.59;100.00;100657.68;5128183;55;1143072;-76
2023/06/29 03:12:31;;;;;;;11.67;6.10;;;;;;;14.50;100.00;100659.88;5093839;56;1142866;-76
2023/06/29 03:17:37;;;;;;;11.15;5.78;;;;;;;14.45;100.00;100658.11;5120932;56;1142870;-75
2023/06/29 03:22:43;;;;;;;10.10;5.90;;;;;;;14.44;100.00;100660.42;5126653;55;1143488;-73
2023/06/29 03:27:49;;;;;;;8.33;5.53;;;;;;;14.44;100.00;100665.74;5196036;54;1142985;-75
2023/06/29 03:32:58;;;;;;;12.57;6.23;;;;;;;14.41;100.00;100668.68;5218969;55;1140724;-76
2023/06/29 03:38:07;;;;;;;13.90;6.43;;;;;;;14.39;100.00;100667.94;5065864;55;1142959;-75
2023/06/29 03:43:11;;;;;;;7.80;6.83;;;;;;;14.40;100.00;100669.66;5093075;55;1143203;-71
2023/06/29 03:48:17;;;;;;;12.53;6.47;;;;;;;14.42;100.00;100657.05;5114606;55;1140819;-70
2023/06/29 03:53:22;;;;;;;12.40;6.07;;;;;;;14.56;100.00;100663.77;5092769;55;1143158;-78
2023/06/29 03:58:28;;;;;;;8.20;6.20;;;;;;;14.64;100.00;100667.42;5123743;55;1142885;-77
2023/06/29 04:03:34;;;;;;;9.70;6.73;;;;;;;14.68;100.00;100666.63;5144068;55;1140815;-71
2023/06/29 04:08:39;;;;;;;18.77;7.97;;;;;;;14.68;100.00;100671.46;5120469;56;1141237;-76
2023/06/29 04:13:45;;;;;;;9.67;6.57;;;;;;;14.68;100.00;100677.27;5102930;56;1143034;-81
2023/06/29 04:18:50;;;;;;;10.83;6.40;;;;;;;14.67;100.00;100675.59;5116262;56;1140850;-73
2023/06/29 04:23:56;;;;;;;12.27;6.27;;;;;;;14.65;100.00;100682.42;5095251;56;1143204;-75
2023/06/29 04:29:05;;;;;;;14.67;6.73;;;;;;;14.73;100.00;100684.36;5093405;56;1143235;-73
2023/06/29 04:34:10;;;;;;;7.13;5.27;;;;;;;14.82;100.00;100678.69;5102987;56;1143024;-73
2023/06/29 04:39:17;;;;;;;9.50;6.23;;;;;;;14.91;100.00;100679.16;5078219;56;1140982;-77
2023/06/29 04:44:22;;;;;;;6.83;4.23;;;;;;;14.98;100.00;100672.25;5092525;56;1140960;-75
2023/06/29 04:49:37;;;;;;;12.28;5.30;;;;;;;15.09;100.00;100674.28;5108084;55;1141015;-72
2023/06/29 04:54:37;;;;;;;5.37;4.40;;;;;;;15.12;100.00;100682.48;5124279;56;1143015;-80
2023/06/29 04:59:43;;;;;;;10.20;5.60;;;;;;;15.17;100.00;100678.88;5068688;56;1140948;-73
2023/06/29 05:04:49;;;;;;;9.93;5.33;;;;;;;15.26;100.00;100683.36;5014981;57;1143033;-75
2023/06/29 05:09:55;;;;;;;9.37;4.20;;;;;;;15.35;100.00;100674.97;5113366;56;1140575;-73
2023/06/29 05:15:00;;;;;;;7.83;4.87;;;;;;;15.43;100.00;100679.06;5081040;56;1141023;-78
2023/06/29 05:20:08;;;;;;;8.93;4.87;;;;;;;15.52;100.00;100677.36;5082734;56;1140948;-73
2023/06/29 05:25:14;;;;;;;10.74;5.20;;;;;;;15.67;100.00;100678.09;5057588;56;1140981;-75
2023/06/29 05:30:20;;;;;;;9.20;4.90;;;;;;;15.86;100.00;100669.65;5063982;56;1143145;-72
2023/06/29 05:35:26;;;;;;;9.20;5.30;;;;;;;16.04;100.00;100667.86;5083811;56;1140823;-74
2023/06/29 05:40:32;;;;;;;9.45;4.50;;;;;;;16.22;100.00;100671.85;5152661;56;1140556;-79
2023/06/29 05:57:39;;;;;;;13.00;5.20;;;;;;;16.47;100.00;100681.80;5184452;56;47351;-68
2023/06/29 06:02:45;;;;;;;14.40;4.47;;;;;;;16.82;100.00;100685.78;4895941;57;1138941;-69
2023/06/29 06:07:51;;;;;;;13.20;4.10;;;;;;;17.00;100.00;100682.23;4960643;57;1142916;-72
2023/06/29 06:12:57;;;;;;;10.33;3.90;;;;;;;17.14;100.00;100686.51;4939882;57;1142768;-75
2023/06/29 06:18:03;;;;;;;7.57;4.00;;;;;;;17.27;100.00;100686.08;4945648;57;1142687;-82
2023/06/29 06:23:09;;;;;;;12.07;4.13;;;;;;;17.41;100.00;100682.02;5011352;57;1141092;-80
2023/06/29 06:28:14;;;;;;;4.90;3.30;;;;;;;17.56;100.00;100679.08;4957913;57;1142684;-76
2023/06/29 06:33:20;;;;;;;9.07;3.73;;;;;;;17.75;100.00;100675.32;5010315;57;1141552;-74
2023/06/29 06:38:26;;;;;;;10.40;3.50;;;;;;;18.00;100.00;100675.76;5036393;57;1140952;-78
2023/06/29 06:43:31;;;;;;;7.55;4.12;;;;;;;18.18;100.00;100673.77;5005336;57;1143076;-78
2023/06/29 06:48:37;;;;;;;5.03;2.73;;;;;;;18.32;100.00;100680.35;4947067;57;1140912;-75
2023/06/29 06:53:43;;;;;;;10.20;3.63;;;;;;;18.52;100.00;100688.89;4963168;57;1141077;-80
2023/06/29 06:58:48;;;;;;;6.20;2.52;;;;;;;18.63;100.00;100681.92;4917372;57;1142856;-77
2023/06/29 07:03:54;;;;;;;11.55;2.80;;;;;;;18.83;100.00;100683.73;4906059;57;1140818;-80
2023/06/29 07:09:00;;;;;;;5.05;2.40;;;;;;;18.95;100.00;100683.22;4896415;58;1142994;-78
2023/06/29 07:14:06;;;;;;;4.28;2.70;;;;;;;19.07;100.00;100677.53;4907214;57;1140901;-77
2023/06/29 07:19:17;;;;;;;11.88;3.40;;;;;;;19.25;100.00;100678.98;4888312;58;1141297;-78
2023/06/29 07:24:23;;;;;;;6.37;2.27;;;;;;;19.44;100.00;100671.05;4914121;57;1143221;-76
2023/06/29 07:29:30;;;;;;;7.10;2.67;;;;;;;19.62;100.00;100671.70;4934429;57;1140672;-79
2023/06/29 07:34:36;;;;;;;6.28;2.95;;;;;;;19.72;100.00;100679.53;4914630;58;1140732;-73
2023/06/29 07:39:42;;;;;;;8.16;3.22;;;;;;;19.91;100.00;100671.56;4914925;58;1141266;-70
2023/06/29 07:44:47;;;;;;;6.30;2.92;;;;;;;19.98;100.00;100658.63;4934520;57;1141151;-77
2023/06/29 07:49:53;;;;;;;8.05;2.37;;;;;;;20.11;100.00;100653.17;4919001;57;1140815;-71
2023/06/29 07:54:59;;;;;;;5.00;2.30;;;;;;;20.24;100.00;100647.54;4856524;57;1140995;-77
2023/06/29 08:00:06;;;;;;;4.33;2.85;;;;;;;20.22;100.00;100653.59;4957634;57;1140681;-71
2023/06/29 08:05:15;;;;;;;3.20;2.33;;;;;;;20.22;100.00;100642.02;4948834;57;1141007;-75
2023/06/29 08:10:20;;;;;;;3.33;2.40;;;;;;;20.34;100.00;100643.27;4954415;57;1141112;-74
2023/06/29 08:15:26;;;;;;;6.60;2.55;;;;;;;20.52;100.00;100646.52;5034956;56;1140883;-70
2023/06/29 08:20:32;;;;;;;6.55;2.70;;;;;;;20.71;100.00;100647.37;4943642;57;1140963;-73
2023/06/29 08:25:37;;;;;;;2.58;2.37;;;;;;;20.85;100.00;100642.20;4876368;57;1141018;-76
2023/06/29 08:30:43;;;;;;;10.10;2.62;;;;;;;20.86;100.00;100643.87;4940010;57;1140855;-73
2023/06/29 08:35:48;;;;;;;3.50;2.25;;;;;;;20.99;100.00;100648.11;4918642;56;1143070;-73
2023/06/29 08:40:57;;;;;;;3.47;2.17;;;;;;;21.21;100.00;100652.62;4926027;57;1140617;-76
2023/06/29 08:46:04;;;;;;;5.37;2.25;;;;;;;21.32;100.00;100643.26;4968115;57;1141385;-71
2023/06/29 08:51:10;;;;;;;2.80;2.00;;;;;;;21.54;100.00;100637.45;4962367;57;1141211;-78
2023/06/29 08:56:16;;;;;;;9.27;2.50;;;;;;;21.67;100.00;100637.63;4959963;57;1141216;-72
2023/06/29 09:01:22;;;;;;;5.55;2.15;;;;;;;21.68;100.00;100635.25;5020483;56;1141382;-76
2023/06/29 09:06:28;;;;;;;7.97;2.30;;;;;;;21.86;100.00;100641.55;4982228;57;1141002;-76
2023/06/29 09:11:36;;;;;;;3.70;2.10;;;;;;;21.95;100.00;100629.16;5073830;57;1140874;-75
2023/06/29 09:17:01;;;;;;;4.62;2.40;;;;;;;22.16;100.00;100631.55;5042487;56;1141155;-80
2023/06/29 09:22:08;;;;;;;11.75;2.42;;;;;;;22.20;100.00;100631.50;5038693;56;1140888;-74
2023/06/29 09:27:14;;;;;;;6.20;2.45;;;;;;;22.22;100.00;100632.98;4942898;57;1142931;-73
2023/06/29 09:32:20;;;;;;;4.92;2.33;;;;;;;22.40;100.00;100630.68;4969181;57;1140798;-74
2023/06/29 09:37:27;;;;;;;3.67;2.65;;;;;;;22.62;100.00;100625.25;4880177;56;1141092;-75
2023/06/29 09:42:38;;;;;;;5.22;1.75;;;;;;;22.71;100.00;100629.50;4911396;56;1140928;-71
2023/06/29 09:47:53;;;;;;;7.73;2.10;;;;;;;22.89;100.00;100628.53;4869932;56;1140942;-72
2023/06/29 09:52:59;;;;;;;2.80;1.47;;;;;;;22.82;100.00;100627.64;4938812;57;1141119;-74
2023/06/29 09:58:06;;;;;;;15.53;2.00;;;;;;;22.86;100.00;100620.83;4956748;58;1141154;-69
2023/06/29 10:03:12;;;;;;;3.20;2.15;;;;;;;22.98;100.00;100615.72;4979159;56;1142978;-76
2023/06/29 10:08:22;;;;;;;3.00;1.73;;;;;;;23.20;100.00;100621.89;4910812;56;1141124;-75
2023/06/29 10:13:28;;;;;;;1.85;1.62;;;;;;;23.33;100.00;100609.81;5014131;56;1140874;-74
2023/06/29 10:18:39;;;;;;;2.70;1.70;;;;;;;23.45;100.00;100613.09;5038263;56;1140994;-75
2023/06/29 10:23:45;;;;;;;14.30;1.50;;;;;;;23.52;100.00;100612.33;5044343;56;1140817;-73
2023/06/29 10:28:51;;;;;;;10.53;1.85;;;;;;;23.55;100.00;100610.55;5064052;56;1143108;-72
2023/06/29 10:33:59;;;;;;;1.07;1.07;;;;;;;23.62;100.00;100600.11;5044647;56;1143090;-73
2023/06/29 10:39:09;;;;;;;1.32;1.30;;;;;;;23.70;100.00;100595.88;5026533;56;1140962;-71
2023/06/29 10:44:15;;;;;;;5.72;1.72;;;;;;;23.82;100.00;100598.32;4929348;57;1141043;-71
2023/06/29 10:49:23;;;;;;;4.40;1.42;;;;;;;23.92;100.00;100587.63;4948486;58;1141230;-70
2023/06/29 10:54:29;;;;;;;2.72;1.32;;;;;;;24.22;100.00;100588.94;4966404;57;1140848;-76
2023/06/29 10:59:36;;;;;;;0.85;0.85;;;;;;;24.55;100.00;100584.94;5011014;57;1140857;-77
2023/06/29 11:04:42;;;;;;;1.62;1.52;;;;;;;24.68;100.00;100579.51;5021611;57;1140866;-75
2023/06/29 11:09:48;;;;;;;2.85;1.55;;;;;;;24.69;100.00;100576.28;4991413;57;1141004;-72
2023/06/29 11:14:54;;;;;;;1.52;1.27;;;;;;;24.84;100.00;100577.72;4989994;58;1141000;-72
2023/06/29 11:20:00;;;;;;;4.92;1.50;;;;;;;24.81;100.00;100575.44;4994091;57;1141197;-74
2023/06/29 11:25:07;;;;;;;4.22;2.40;;;;;;;24.85;81.88;100572.63;4909916;59;1140853;-76
2023/06/29 11:30:13;;;;;;;3.12;1.30;;;;;;;24.93;75.77;100565.31;4910492;58;1139123;-74
2023/06/29 11:35:24;;;;;;;5.73;1.57;;;;;;;25.05;80.37;100569.08;4960498;58;1139003;-74
2023/06/29 11:40:30;;;;;;;12.90;1.77;;;;;;;25.33;79.50;100562.02;4987745;57;1146583;-74
2023/06/29 11:45:36;;;;;;;3.55;1.60;;;;;;;25.31;74.89;100552.75;4989661;58;1141236;-72
2023/06/29 11:50:42;;;;;;;2.60;1.43;;;;;;;25.17;79.61;100548.43;4974187;58;1139122;-72
2023/06/29 11:55:55;;;;;;;2.55;1.50;;;;;;;25.36;75.54;100547.50;4981975;58;1138903;-73
2023/06/29 12:01:01;;;;;;;6.33;1.70;;;;;;;25.52;76.41;100547.02;4915545;57;1138532;-77
2023/06/29 12:06:06;;;;;;;4.17;1.72;;;;;;;25.55;74.03;100541.69;4990409;57;1138806;-72
2023/06/29 12:11:20;;;;;;;2.15;1.55;;;;;;;25.66;76.94;100538.35;4942114;57;1138887;-71
2023/06/29 12:16:27;;;;;;;4.83;1.62;;;;;;;25.91;74.71;100532.45;4959038;56;1138901;-73
2023/06/29 12:21:35;;;;;;;1.98;1.56;;;;;;;25.99;73.59;100529.16;4939807;57;1138892;-77
2023/06/29 12:26:40;;;;;;;2.57;1.50;;;;;;;25.91;73.28;100528.39;4939917;57;1138858;-78
2023/06/29 12:31:46;;;;;;;2.90;1.55;;;;;;;25.87;74.87;100516.84;4959157;58;1138896;-75
2023/06/29 12:36:52;;;;;;;3.70;1.52;;;;;;;26.09;70.39;100510.02;4939512;57;1138848;-78
2023/06/29 12:41:57;;;;;;;3.80;1.20;;;;;;;26.19;72.23;100504.92;4934546;57;1138831;-75
2023/06/29 12:47:03;;;;;;;3.30;1.80;;;;;;;26.30;73.65;100506.62;4959548;57;1139052;-71
2023/06/29 12:52:09;;;;;;;4.85;1.95;;;;;;;26.47;73.78;100497.71;4995298;57;1138881;-72
2023/06/29 12:57:14;;;;;;;6.12;2.15;;;;;;;26.68;70.75;100498.34;4941384;58;1138942;-77
2023/06/29 13:02:20;;;;;;;2.52;1.60;;;;;;;26.72;70.82;100490.90;4944445;58;1139015;-76
2023/06/29 13:07:26;;;;;;;2.58;1.57;;;;;;;26.65;66.52;100498.27;4953270;57;1138704;-74
2023/06/29 13:12:31;;;;;;;2.02;1.77;;;;;;;26.48;65.83;100493.11;4911223;58;1138663;-74
2023/06/29 13:17:37;;;;;;;2.42;1.50;;;;;;;26.58;66.98;100488.83;4911361;58;1138923;-74
2023/06/29 13:22:43;;;;;;;2.20;1.50;;;;;;;26.51;65.75;100482.66;4964449;58;1138635;-72
2023/06/29 13:27:49;;;;;;;4.15;1.45;;;;;;;26.31;65.81;100470.33;4979732;57;1138637;-75
2023/06/29 13:32:55;;;;;;;1.30;1.20;;;;;;;26.03;66.52;100472.94;4970457;57;1139188;-74
2023/06/29 13:38:00;;;;;;;7.50;1.60;;;;;;;26.08;66.61;100475.83;4994041;57;1138926;-71
2023/06/29 13:43:06;;;;;;;8.78;1.65;;;;;;;26.03;67.88;100476.17;4991153;58;1138835;-77
2023/06/29 13:48:11;;;;;;;5.75;1.60;;;;;;;25.94;67.26;100475.63;4991378;57;1138819;-74
2023/06/29 13:53:17;;;;;;;2.87;2.02;;;;;;;25.67;67.84;100474.97;4943672;58;1138945;-70
2023/06/29 13:58:23;;;;;;;4.78;1.40;;;;;;;25.43;69.26;100464.37;4959354;57;1139041;-76
2023/06/29 14:03:28;;;;;;;6.12;1.20;;;;;;;25.45;69.51;100460.92;4939939;57;1138897;-77
2023/06/29 14:08:34;;;;;;;2.75;1.77;;;;;;;25.60;67.96;100464.69;4940510;58;1139037;-73
2023/06/29 14:13:40;;;;;;;3.52;1.75;;;;;;;25.54;66.93;100458.78;5014090;58;1138990;-75
2023/06/29 14:18:46;;;;;;;2.50;1.55;;;;;;;25.51;69.99;100452.47;4988133;58;1139129;-73
2023/06/29 14:23:51;;;;;;;4.90;1.47;;;;;;;25.65;70.99;100451.36;4995708;57;1138880;-72
2023/06/29 14:28:57;;;;;;;6.72;1.70;;;;;;;25.85;69.31;100448.48;5016185;57;1138710;-73
2023/06/29 14:34:02;;;;;;;4.78;1.80;;;;;;;25.92;66.07;100441.14;4912075;58;1138763;-69
2023/06/29 14:39:08;;;;;;;3.62;1.60;;;;;;;26.11;65.28;100433.37;4996333;57;1138782;-74
2023/06/29 14:44:14;;;;;;;3.60;1.20;;;;;;;26.31;65.76;100420.99;4991946;57;1138971;-76
2023/06/29 14:49:20;;;;;;;7.58;1.67;;;;;;;26.30;64.94;100425.28;5016220;57;1139016;-73
2023/06/29 14:54:25;;;;;;;3.07;1.43;;;;;;;26.20;63.25;100427.13;4962442;57;1138884;-77
2023/06/29 14:59:31;;;;;;;4.92;2.02;;;;;;;26.24;65.06;100416.15;4985158;57;1138833;-74
2023/06/29 15:04:37;;;;;;;3.08;1.40;;;;;;;26.20;64.09;100416.28;5015217;57;1138696;-70
2023/06/29 15:09:43;;;;;;;2.07;1.20;;;;;;;26.15;65.37;100411.52;4994810;57;1139263;-77
2023/06/29 15:14:49;;;;;;;4.80;1.80;;;;;;;26.01;63.26;100407.28;4995863;57;1138776;-74
2023/06/29 15:19:54;;;;;;;7.45;1.60;;;;;;;25.89;65.43;100400.41;5015049;57;1139030;-77
2023/06/29 15:25:00;;;;;;;2.75;1.40;;;;;;;25.82;68.07;100398.27;4958308;56;1138848;-76
2023/06/29 15:30:07;;;;;;;2.05;1.62;;;;;;;25.89;65.75;100392.28;4914377;58;1138801;-74
2023/06/29 15:35:13;;;;;;;2.67;1.87;;;;;;;26.05;66.27;100377.86;4915803;56;1138492;-71
2023/06/29 15:40:19;;;;;;;2.50;1.65;;;;;;;26.15;66.53;100379.52;4935304;56;1138628;-73
2023/06/29 15:45:25;;;;;;;3.08;1.75;;;;;;;26.14;66.26;100372.44;4915825;57;1139123;-77
2023/06/29 15:50:31;;;;;;;7.72;1.87;;;;;;;26.02;66.64;100375.59;4926032;56;1138804;-76
2023/06/29 15:55:37;;;;;;;5.50;1.90;;;;;;;25.89;67.80;100377.90;5012689;56;1138878;-76
2023/06/29 16:00:43;;;;;;;4.00;1.60;;;;;;;26.02;68.33;100370.16;4995087;57;1138757;-72
2023/06/29 16:05:49;;;;;;;3.52;1.42;;;;;;;26.09;67.04;100360.93;4995180;57;1138856;-75
2023/06/29 16:10:54;;;;;;;4.35;1.55;;;;;;;26.21;66.54;100358.30;5059196;57;1139029;-73
2023/06/29 16:16:01;;;;;;;2.22;1.50;;;;;;;26.20;65.00;100357.47;5003075;57;1138992;-75
2023/06/29 16:21:09;;;;;;;5.17;1.60;;;;;;;26.11;65.96;100360.19;5006236;57;1138939;-80
2023/06/29 16:26:14;;;;;;;2.02;1.50;;;;;;;26.04;65.96;100359.94;5000400;57;1138929;-74
2023/06/29 16:31:20;;;;;;;2.60;1.75;;;;;;;25.87;64.95;100349.67;4951183;57;1138917;-75
2023/06/29 16:36:26;;;;;;;2.92;1.62;;;;;;;25.69;66.77;100348.27;5012147;56;1138989;-75
2023/06/29 16:42:00;;;;;;;1.58;1.48;;;;;;;25.57;67.60;100348.66;5010425;56;1138853;-77
2023/06/29 16:47:06;;;;;;;;;;;;;;;25.63;69.14;100343.75;4977782;57;1139023;-72
2023/06/29 16:52:11;;;;;;;4.62;1.70;;;;;;;25.82;69.26;100337.30;4974402;56;976212;-70
2023/06/29 16:57:17;;;;;;;2.84;1.78;;;;;;;25.93;68.60;100334.41;4990331;56;1137137;-76
2023/06/29 17:02:22;;;;;;;5.03;4.53;;;;;;;25.93;66.08;100327.63;4968526;57;1139119;-77
2023/06/29 17:07:28;;;;;;;2.00;1.42;;;;;;;25.97;65.32;100322.59;5033718;57;1139211;-76
2023/06/29 17:12:34;;;;;;;6.92;2.20;;;;;;;25.97;65.32;100322.59;5144174;55;1138781;-76
2023/06/29 17:17:39;;;;;;;2.12;1.60;;;;;;;26.00;67.21;100324.31;5126938;55;1139063;-70
2023/06/29 17:22:45;;;;;;;3.57;1.50;;;;;;;26.01;65.98;100323.78;5078047;56;1142173;-79
2023/06/29 17:27:51;;;;;;;4.40;1.55;;;;;;;25.96;66.23;100319.59;5099060;55;1138814;-73
2023/06/29 17:32:56;;;;;;;1.65;1.20;;;;;;;25.89;64.67;100319.11;5140492;55;1138840;-68
2023/06/29 17:38:02;;;;;;;2.90;1.60;;;;;;;25.78;63.89;100310.90;5156464;55;1138899;-76
2023/06/29 17:43:08;;;;;;;8.80;1.87;;;;;;;25.67;63.92;100306.19;5163111;55;1138892;-74
2023/06/29 17:48:13;;;;;;;6.22;1.60;;;;;;;25.54;64.82;100306.59;5024939;57;1139074;-72
2023/06/29 17:53:19;;;;;;;2.72;2.10;;;;;;;25.48;65.94;100312.08;5131838;55;1139077;-76
2023/06/29 17:58:25;;;;;;;1.75;1.50;;;;;;;25.38;65.78;100301.72;4991690;57;1139138;-75
2023/06/29 18:03:30;;;;;;;2.35;1.70;;;;;;;25.35;67.10;100304.06;5078378;56;1138931;-73
2023/06/29 18:08:36;;;;;;;3.42;1.80;;;;;;;25.29;67.81;100295.46;5104937;56;1139518;-70
2023/06/29 18:13:41;;;;;;;4.33;2.07;;;;;;;25.25;68.51;100301.83;5164247;55;1138821;-72
2023/06/29 18:18:47;;;;;;;6.67;4.97;;;;;;;25.16;68.98;100297.75;5099397;55;1138965;-75
2023/06/29 18:23:53;;;;;;;5.17;3.60;;;;;;;25.05;69.20;100307.41;5114066;56;1138963;-75
2023/06/29 18:28:58;;;;;;;2.83;2.27;;;;;;;24.94;69.34;100298.62;5093512;56;1138711;-72
2023/06/29 18:34:04;;;;;;;4.30;1.85;;;;;;;24.84;69.87;100299.07;5094214;56;1138704;-73
2023/06/29 18:39:10;;;;;;;6.28;2.27;;;;;;;24.78;71.34;100293.16;5113906;56;1138955;-73
2023/06/29 18:44:15;;;;;;;3.33;1.75;;;;;;;24.68;71.28;100289.28;5093892;56;1138890;-76
2023/06/29 18:49:21;;;;;;;4.42;1.95;;;;;;;24.59;71.34;100291.94;5094024;56;1139060;-72
2023/06/29 18:54:27;;;;;;;3.92;2.15;;;;;;;24.47;71.28;100295.30;5162282;56;1138900;-77
2023/06/29 18:59:35;;;;;;;13.03;8.90;;;;;;;24.39;71.68;100296.08;5185290;55;1138637;-75
2023/06/29 19:04:41;;;;;;;20.12;11.32;;;;;;;24.37;73.98;100291.41;5183191;55;1140832;-70
2023/06/29 19:09:46;;;;;;;25.23;10.43;;;;;;;24.42;75.18;100294.30;5144189;56;1143103;-68
2023/06/29 19:14:52;;;;;;;21.57;13.00;;;;;;;24.45;75.87;100291.14;5104885;55;1143088;-76
2023/06/29 19:19:58;;;;;;;21.48;10.85;;;;;;;24.42;76.35;100289.73;5012608;57;1143082;-69
2023/06/29 19:25:04;;;;;;;12.55;6.30;;;;;;;24.38;76.83;100300.66;5152651;56;1142943;-72
2023/06/29 19:30:11;;;;;;;14.33;5.03;;;;;;;24.29;76.84;100308.67;5078649;56;1140817;-75
2023/06/29 19:35:16;;;;;;;9.78;3.70;;;;;;;24.19;77.73;100305.57;5078917;56;1141017;-75
2023/06/29 19:40:22;;;;;;;25.43;5.07;;;;;;;24.11;77.85;100304.47;5079799;55;1139068;-71
2023/06/29 19:45:28;;;;;;;6.95;4.65;;;;;;;24.03;78.31;100309.56;5099219;56;1140995;-74
2023/06/29 19:50:33;;;;;;;12.30;5.42;;;;;;;23.80;80.24;100312.73;5077953;56;1138786;-72
2023/06/29 19:55:39;;;;;;;15.85;5.95;;;;;;;23.80;80.24;100312.73;5154417;55;1141202;-74
2023/06/29 20:00:44;;;;;;;7.20;4.70;;;;;;;23.68;80.61;100312.24;5164272;55;1141114;-72
2023/06/29 20:05:50;;;;;;;6.72;4.15;;;;;;;23.56;81.20;100316.59;5108133;55;1139003;-75
2023/06/29 20:10:57;;;;;;;11.53;4.20;;;;;;;23.37;81.20;100316.89;5038173;56;1138871;-76
2023/06/29 20:16:03;;;;;;;9.30;5.05;;;;;;;23.20;81.86;100319.16;5134305;55;1141071;-76
2023/06/29 20:21:11;;;;;;;17.92;15.15;;;;;;;23.11;82.64;100318.50;5161808;55;1138665;-72
2023/06/29 20:26:16;;;;;;;33.85;24.30;;;;;;;23.02;83.21;100323.80;5163483;55;1143148;-76
2023/06/29 20:31:22;;;;;;;27.90;18.00;;;;;;;22.86;83.52;100323.34;5122122;55;1143219;-76
2023/06/29 20:36:28;;;;;;;23.73;15.30;;;;;;;22.74;84.46;100319.86;5184724;55;1143045;-72
2023/06/29 20:41:34;;;;;;;19.37;12.00;;;;;;;22.62;84.99;100317.41;5164373;55;1143078;-74
2023/06/29 20:46:41;;;;;;;18.82;11.08;;;;;;;22.52;85.65;100318.31;5155413;55;1142859;-67
2023/06/29 20:51:47;;;;;;;14.45;9.08;;;;;;;22.44;86.47;100317.16;5098683;56;1142666;-70
2023/06/29 20:56:53;;;;;;;8.10;5.50;;;;;;;22.40;87.27;100314.54;5143744;55;1141227;-74
2023/06/29 21:01:59;;;;;;;7.83;3.58;;;;;;;22.36;87.92;100310.58;5095440;55;1138921;-71
2023/06/29 21:07:05;;;;;;;10.30;5.05;;;;;;;22.28;88.24;100308.06;5097335;56;1138671;-74
2023/06/29 21:12:12;;;;;;;9.68;6.62;;;;;;;22.21;88.35;100317.45;5077934;56;1140785;-77
2023/06/29 21:17:18;;;;;;;19.27;11.55;;;;;;;22.12;88.50;100317.82;5078498;56;1138821;-69
2023/06/29 21:22:24;;;;;;;12.23;7.77;;;;;;;22.02;89.08;100309.56;5076901;56;1143235;-78
2023/06/29 21:27:30;;;;;;;8.95;5.72;;;;;;;21.88;88.73;100312.34;5161696;55;1141199;-73
2023/06/29 21:32:36;;;;;;;11.75;4.72;;;;;;;21.82;89.37;100312.64;5164864;55;1138625;-75
2023/06/29 21:37:41;;;;;;;10.18;6.92;;;;;;;21.79;89.72;100313.54;5165551;55;1140839;-75
2023/06/29 21:42:47;;;;;;;11.50;6.37;;;;;;;21.75;90.35;100311.75;5177610;55;1140820;-77
2023/06/29 21:47:53;;;;;;;9.03;5.87;;;;;;;21.69;90.47;100305.82;5078827;55;1140832;-71
2023/06/29 21:52:58;;;;;;;12.07;5.72;;;;;;;21.61;90.70;100305.44;5090634;55;1138870;-74
2023/06/29 21:58:04;;;;;;;9.73;6.20;;;;;;;21.51;90.88;100296.89;5184568;55;1141086;-70
2023/06/29 22:03:10;;;;;;;9.65;5.45;;;;;;;21.45;91.21;100299.52;5164584;55;1138583;-70
2023/06/29 22:08:15;;;;;;;7.53;5.50;;;;;;;21.35;91.50;100297.16;5147476;55;1138762;-75
2023/06/29 22:13:27;;;;;;;8.88;5.42;;;;;;;21.13;90.84;100303.03;5078834;56;1138889;-76
2023/06/29 22:18:28;;;;;;;7.87;3.33;;;;;;;20.68;91.39;100300.19;5096918;56;1138659;-72
2023/06/29 22:23:34;;;;;;;4.47;3.65;;;;;;;20.66;93.72;100296.34;5078853;56;1138955;-72
2023/06/29 22:28:40;;;;;;;11.08;6.83;;;;;;;20.68;94.42;100294.81;5079226;57;1138883;-75
2023/06/29 22:33:46;;;;;;;7.95;5.28;;;;;;;20.64;94.28;100290.32;5099293;56;1141024;-75
2023/06/29 22:38:51;;;;;;;12.43;5.40;;;;;;;20.56;94.47;100289.11;5083877;56;1138800;-76
2023/06/29 22:43:59;;;;;;;11.43;6.17;;;;;;;20.47;94.44;100293.45;5164999;55;1141006;-74
2023/06/29 22:49:04;;;;;;;9.38;5.95;;;;;;;20.40;94.90;100302.76;5184911;55;1140971;-75
2023/06/29 22:54:10;;;;;;;11.78;6.90;;;;;;;20.38;95.18;100296.73;5132340;55;1138848;-69
2023/06/29 22:59:16;;;;;;;17.32;9.30;;;;;;;20.14;94.75;100295.67;5079627;56;1141014;-75
2023/06/29 23:04:21;;;;;;;15.48;7.90;;;;;;;20.16;97.01;100290.96;5079090;56;1141208;-68
2023/06/29 23:09:28;;;;;;;19.45;9.25;;;;;;;20.18;97.20;100288.89;5099463;56;1141242;-68